createdAt,value
2019-03-16T00:00:57.668Z,5.96
2019-03-16T00:01:57.720Z,5.93
2019-03-16T00:02:57.472Z,5.98
2019-03-16T00:03:57.367Z,5.81
2019-03-16T00:04:57.265Z,5.83
2019-03-16T00:05:57.166Z,5.90
2019-03-16T00:06:57.087Z,5.78
2019-03-16T00:07:56.967Z,5.81
2019-03-16T00:08:56.868Z,5.80
2019-03-16T00:09:56.773Z,5.81
2019-03-16T00:10:56.668Z,5.67
2019-03-16T00:11:56.728Z,5.75
2019-03-16T00:12:56.466Z,5.67
2019-03-16T00:13:56.370Z,5.74
2019-03-16T00:14:56.265Z,5.66
2019-03-16T00:15:56.166Z,5.69
2019-03-16T00:16:56.084Z,5.74
2019-03-16T00:17:55.967Z,5.75
2019-03-16T00:18:55.866Z,5.73
2019-03-16T00:19:55.768Z,5.74
2019-03-16T00:20:55.666Z,5.67
2019-03-16T00:21:55.573Z,5.70
2019-03-16T00:22:55.485Z,5.69
2019-03-16T00:23:55.365Z,5.62
2019-03-16T00:24:55.270Z,5.65
2019-03-16T00:25:55.163Z,5.75
2019-03-16T00:26:55.070Z,5.58
2019-03-16T00:27:54.983Z,5.65
2019-03-16T00:28:54.870Z,5.56
2019-03-16T00:29:54.768Z,5.60
2019-03-16T00:30:54.770Z,5.75
2019-03-16T00:31:54.567Z,5.65
2019-03-16T00:32:54.485Z,5.66
2019-03-16T00:33:54.365Z,5.59
2019-03-16T00:34:54.265Z,5.78
2019-03-16T00:35:54.164Z,5.58
2019-03-16T00:36:54.068Z,5.62
2019-03-16T00:37:54.095Z,5.59
2019-03-16T00:38:53.873Z,5.59
2019-03-16T00:39:53.766Z,5.70
2019-03-16T00:40:53.664Z,5.70
2019-03-16T00:41:53.565Z,5.63
2019-03-16T00:42:53.497Z,5.65
2019-03-16T00:43:53.366Z,5.66
2019-03-16T00:44:53.370Z,5.66
2019-03-16T00:45:53.167Z,5.63
2019-03-16T00:46:53.068Z,5.63
2019-03-16T00:47:52.982Z,5.55
2019-03-16T00:48:52.865Z,5.63
2019-03-16T00:49:52.763Z,5.60
2019-03-16T00:50:52.669Z,5.67
2019-03-16T00:51:52.701Z,5.65
2019-03-16T00:52:52.480Z,5.65
2019-03-16T00:53:52.372Z,5.56
2019-03-16T00:54:52.263Z,5.60
2019-03-16T00:55:52.165Z,5.59
2019-03-16T00:56:52.066Z,5.56
2019-03-16T00:57:51.982Z,5.58
2019-03-16T00:58:51.967Z,5.55
2019-03-16T00:59:51.762Z,5.56
2019-03-16T01:00:51.665Z,5.56
2019-03-16T01:01:51.566Z,5.58
2019-03-16T01:02:51.480Z,5.58
2019-03-16T01:03:51.365Z,5.55
2019-03-16T01:04:51.263Z,5.63
2019-03-16T01:05:51.168Z,5.59
2019-03-16T01:06:51.062Z,5.65
2019-03-16T01:07:50.983Z,5.67
2019-03-16T01:08:50.862Z,5.59
2019-03-16T01:09:50.761Z,5.49
2019-03-16T01:10:50.660Z,5.52
2019-03-16T01:11:50.561Z,5.62
2019-03-16T01:12:50.479Z,5.55
2019-03-16T01:13:50.363Z,5.59
2019-03-16T01:14:50.261Z,5.55
2019-03-16T01:15:50.165Z,5.62
2019-03-16T01:16:50.061Z,5.60
2019-03-16T01:17:49.975Z,5.59
2019-03-16T01:18:49.859Z,5.62
2019-03-16T01:19:49.760Z,5.58
2019-03-16T01:20:49.664Z,5.59
2019-03-16T01:21:49.608Z,5.58
2019-03-16T01:22:49.478Z,5.55
2019-03-16T01:23:49.361Z,5.60
2019-03-16T01:24:49.259Z,5.52
2019-03-16T01:25:49.161Z,5.55
2019-03-16T01:26:49.065Z,5.48
2019-03-16T01:27:48.976Z,5.52
2019-03-16T01:28:48.858Z,5.41
2019-03-16T01:29:48.769Z,5.45
2019-03-16T01:30:48.680Z,5.37
2019-03-16T01:31:48.557Z,5.44
2019-03-16T01:32:48.475Z,5.35
2019-03-16T01:33:48.359Z,5.37
2019-03-16T01:34:48.255Z,5.40
2019-03-16T01:35:48.155Z,5.30
2019-03-16T01:36:48.057Z,5.41
2019-03-16T01:37:47.979Z,5.32
2019-03-16T01:38:47.854Z,5.32
2019-03-16T01:39:47.755Z,5.32
2019-03-16T01:40:47.657Z,5.38
2019-03-16T01:41:47.558Z,5.41
2019-03-16T01:42:47.472Z,5.40
2019-03-16T01:43:47.362Z,5.40
2019-03-16T01:44:47.259Z,5.33
2019-03-16T01:45:47.154Z,5.32
2019-03-16T01:46:47.051Z,5.24
2019-03-16T01:47:46.970Z,5.24
2019-03-16T01:48:46.961Z,5.22
2019-03-16T01:49:46.754Z,5.22
2019-03-16T01:50:46.661Z,5.20
2019-03-16T01:51:46.551Z,5.19
2019-03-16T01:52:46.474Z,5.11
2019-03-16T01:53:46.351Z,5.19
2019-03-16T01:54:46.383Z,5.22
2019-03-16T01:55:46.149Z,5.23
2019-03-16T01:56:46.051Z,5.19
2019-03-16T01:57:45.968Z,5.17
2019-03-16T01:58:45.853Z,5.19
2019-03-16T01:59:45.750Z,5.19
2019-03-16T02:00:45.648Z,5.15
2019-03-16T02:01:45.549Z,5.06
2019-03-16T02:02:54.993Z,5.11
2019-03-16T02:03:45.435Z,5.20
2019-03-16T02:04:45.249Z,5.08
2019-03-16T02:05:45.156Z,5.15
2019-03-16T02:06:45.046Z,5.14
2019-03-16T02:07:44.952Z,5.14
2019-03-16T02:08:44.862Z,5.06
2019-03-16T02:09:44.746Z,5.09
2019-03-16T02:10:44.644Z,5.09
2019-03-16T02:11:44.545Z,5.08
2019-03-16T02:12:44.446Z,5.14
2019-03-16T02:13:44.364Z,5.08
2019-03-16T02:14:44.242Z,5.15
2019-03-16T02:15:44.167Z,5.09
2019-03-16T02:16:44.042Z,5.11
2019-03-16T02:17:43.944Z,5.09
2019-03-16T02:18:43.858Z,5.12
2019-03-16T02:19:43.742Z,5.06
2019-03-16T02:20:43.641Z,5.15
2019-03-16T02:21:43.558Z,5.08
2019-03-16T02:22:43.441Z,5.14
2019-03-16T02:23:43.356Z,5.11
2019-03-16T02:24:43.241Z,5.19
2019-03-16T02:25:43.141Z,5.20
2019-03-16T02:26:43.041Z,5.14
2019-03-16T02:27:42.943Z,5.06
2019-03-16T02:28:42.855Z,5.20
2019-03-16T02:29:42.782Z,5.11
2019-03-16T02:30:42.684Z,5.11
2019-03-16T02:31:42.536Z,5.14
2019-03-16T02:32:42.452Z,5.14
2019-03-16T02:33:42.354Z,5.06
2019-03-16T02:34:42.264Z,5.08
2019-03-16T02:35:42.136Z,5.15
2019-03-16T02:36:42.038Z,5.11
2019-03-16T02:37:41.936Z,5.15
2019-03-16T02:38:41.851Z,5.08
2019-03-16T02:39:41.733Z,5.11
2019-03-16T02:40:41.631Z,5.08
2019-03-16T02:41:41.535Z,5.14
2019-03-16T02:42:41.433Z,5.12
2019-03-16T02:43:41.348Z,5.08
2019-03-16T02:44:41.239Z,5.12
2019-03-16T02:45:41.135Z,5.12
2019-03-16T02:46:41.029Z,5.17
2019-03-16T02:47:40.932Z,5.09
2019-03-16T02:48:40.845Z,5.14
2019-03-16T02:49:40.733Z,5.14
2019-03-16T02:50:40.633Z,5.02
2019-03-16T02:51:40.529Z,5.12
2019-03-16T02:52:40.435Z,5.15
2019-03-16T02:53:40.374Z,5.24
2019-03-16T02:54:40.249Z,5.12
2019-03-16T02:55:40.126Z,5.11
2019-03-16T02:56:40.026Z,5.08
2019-03-16T02:57:39.947Z,5.08
2019-03-16T02:58:39.842Z,5.02
2019-03-16T02:59:39.725Z,5.01
2019-03-16T03:00:39.629Z,5.05
2019-03-16T03:01:39.529Z,4.94
2019-03-16T03:02:39.433Z,5.09
2019-03-16T03:03:39.340Z,5.05
2019-03-16T03:04:39.220Z,4.99
2019-03-16T03:05:39.120Z,4.96
2019-03-16T03:06:39.019Z,4.99
2019-03-16T03:07:38.918Z,4.96
2019-03-16T03:08:38.842Z,4.97
2019-03-16T03:09:38.732Z,4.99
2019-03-16T03:10:38.621Z,4.97
2019-03-16T03:11:38.625Z,4.97
2019-03-16T03:12:38.420Z,4.99
2019-03-16T03:13:38.334Z,4.88
2019-03-16T03:14:38.218Z,4.93
2019-03-16T03:15:38.121Z,4.93
2019-03-16T03:16:38.013Z,4.93
2019-03-16T03:17:37.915Z,4.93
2019-03-16T03:18:37.933Z,4.93
2019-03-16T03:19:37.711Z,4.94
2019-03-16T03:20:37.613Z,4.90
2019-03-16T03:21:37.511Z,4.93
2019-03-16T03:22:37.408Z,4.93
2019-03-16T03:23:37.333Z,4.88
2019-03-16T03:24:37.213Z,4.88
2019-03-16T03:25:37.121Z,4.87
2019-03-16T03:26:37.010Z,4.86
2019-03-16T03:27:36.909Z,4.84
2019-03-16T03:28:36.940Z,4.86
2019-03-16T03:29:36.705Z,4.86
2019-03-16T03:30:36.607Z,4.84
2019-03-16T03:31:36.505Z,4.79
2019-03-16T03:32:36.510Z,4.86
2019-03-16T03:33:57.483Z,4.86
2019-03-16T03:34:36.216Z,4.87
2019-03-16T03:35:36.103Z,4.90
2019-03-16T03:36:36.010Z,4.79
2019-03-16T03:37:35.900Z,4.90
2019-03-16T03:38:35.815Z,4.87
2019-03-16T03:39:35.809Z,4.80
2019-03-16T03:40:35.597Z,4.83
2019-03-16T03:41:35.498Z,4.83
2019-03-16T03:42:35.502Z,4.80
2019-03-16T03:43:35.319Z,4.80
2019-03-16T03:44:35.201Z,4.93
2019-03-16T03:45:35.099Z,4.83
2019-03-16T03:46:35.101Z,4.90
2019-03-16T03:47:34.896Z,4.87
2019-03-16T03:48:34.810Z,4.96
2019-03-16T03:49:34.693Z,4.86
2019-03-16T03:50:34.596Z,4.84
2019-03-16T03:51:34.494Z,4.80
2019-03-16T03:52:34.396Z,4.80
2019-03-16T03:53:34.428Z,4.86
2019-03-16T03:54:34.212Z,4.80
2019-03-16T03:55:34.089Z,4.88
2019-03-16T03:56:33.990Z,4.74
2019-03-16T03:57:33.887Z,4.75
2019-03-16T03:58:33.788Z,4.84
2019-03-16T03:59:33.700Z,4.80
2019-03-16T04:00:33.693Z,4.74
2019-03-16T04:01:33.497Z,4.72
2019-03-16T04:02:33.384Z,4.75
2019-03-16T04:03:33.287Z,4.64
2019-03-16T04:04:33.203Z,4.68
2019-03-16T04:05:33.095Z,4.67
2019-03-16T04:06:32.982Z,4.74
2019-03-16T04:07:32.985Z,4.64
2019-03-16T04:08:32.788Z,4.65
2019-03-16T04:09:32.695Z,4.64
2019-03-16T04:10:32.589Z,4.67
2019-03-16T04:11:32.481Z,4.56
2019-03-16T04:12:32.377Z,4.61
2019-03-16T04:13:32.282Z,4.69
2019-03-16T04:14:32.296Z,4.62
2019-03-16T04:15:32.077Z,4.61
2019-03-16T04:16:31.978Z,4.57
2019-03-16T04:17:31.879Z,4.53
2019-03-16T04:18:31.772Z,4.51
2019-03-16T04:19:31.687Z,4.51
2019-03-16T04:20:31.580Z,4.64
2019-03-16T04:21:31.575Z,4.56
2019-03-16T04:22:31.369Z,4.62
2019-03-16T04:23:31.267Z,4.53
2019-03-16T04:24:31.193Z,4.50
2019-03-16T04:25:31.070Z,4.57
2019-03-16T04:26:30.967Z,4.54
2019-03-16T04:27:30.865Z,4.53
2019-03-16T04:28:30.939Z,4.50
2019-03-16T04:29:30.683Z,4.50
2019-03-16T04:30:30.564Z,4.56
2019-03-16T04:31:30.463Z,4.57
2019-03-16T04:32:30.363Z,4.59
2019-03-16T04:33:30.260Z,4.59
2019-03-16T04:34:30.237Z,4.54
2019-03-16T04:35:30.162Z,4.56
2019-03-16T04:36:29.959Z,4.57
2019-03-16T04:37:29.860Z,4.51
2019-03-16T04:38:29.761Z,4.61
2019-03-16T04:39:29.672Z,4.46
2019-03-16T04:40:29.562Z,4.61
2019-03-16T04:41:29.453Z,4.53
2019-03-16T04:42:29.357Z,4.57
2019-03-16T04:43:29.255Z,4.56
2019-03-16T04:44:29.168Z,4.57
2019-03-16T04:45:29.051Z,4.57
2019-03-16T04:46:31.418Z,4.53
2019-03-16T04:47:28.849Z,4.50
2019-03-16T04:48:28.753Z,4.53
2019-03-16T04:49:28.673Z,4.50
2019-03-16T04:50:28.548Z,4.51
2019-03-16T04:51:28.448Z,4.46
2019-03-16T04:52:28.345Z,4.46
2019-03-16T04:53:28.248Z,4.53
2019-03-16T04:54:28.165Z,4.51
2019-03-16T04:55:28.043Z,4.53
2019-03-16T04:56:27.947Z,4.49
2019-03-16T04:57:27.845Z,4.47
2019-03-16T04:58:27.743Z,4.53
2019-03-16T04:59:27.657Z,4.36
2019-03-16T05:00:27.538Z,4.51
2019-03-16T05:01:27.439Z,4.36
2019-03-16T05:02:27.337Z,4.35
2019-03-16T05:03:27.240Z,4.39
2019-03-16T05:04:27.156Z,4.51
2019-03-16T05:05:27.037Z,4.39
2019-03-16T05:06:26.935Z,4.49
2019-03-16T05:07:26.838Z,4.34
2019-03-16T05:08:26.734Z,4.47
2019-03-16T05:09:26.650Z,4.43
2019-03-16T05:10:26.532Z,4.36
2019-03-16T05:11:26.433Z,4.42
2019-03-16T05:12:26.329Z,4.42
2019-03-16T05:13:26.229Z,4.36
2019-03-16T05:14:26.145Z,4.39
2019-03-16T05:15:26.030Z,4.43
2019-03-16T05:16:25.924Z,4.34
2019-03-16T05:17:25.824Z,4.35
2019-03-16T05:18:25.725Z,4.39
2019-03-16T05:19:25.642Z,4.39
2019-03-16T05:20:25.522Z,4.42
2019-03-16T05:21:25.422Z,4.38
2019-03-16T05:22:25.324Z,4.39
2019-03-16T05:23:25.270Z,4.42
2019-03-16T05:24:25.136Z,4.39
2019-03-16T05:25:25.024Z,4.44
2019-03-16T05:26:24.921Z,4.35
2019-03-16T05:27:24.815Z,4.38
2019-03-16T05:28:24.714Z,4.36
2019-03-16T05:29:24.628Z,4.42
2019-03-16T05:30:24.511Z,4.42
2019-03-16T05:31:24.411Z,4.39
2019-03-16T05:32:24.313Z,4.43
2019-03-16T05:33:24.212Z,4.38
2019-03-16T05:34:24.137Z,4.44
2019-03-16T05:35:24.099Z,4.39
2019-03-16T05:36:23.910Z,4.43
2019-03-16T05:37:23.809Z,4.36
2019-03-16T05:38:23.707Z,4.43
2019-03-16T05:39:28.090Z,4.49
2019-03-16T05:40:23.509Z,4.39
2019-03-16T05:41:23.405Z,4.46
2019-03-16T05:42:23.304Z,4.39
2019-03-16T05:43:23.201Z,4.38
2019-03-16T05:44:23.228Z,4.39
2019-03-16T05:45:23.047Z,4.42
2019-03-16T05:46:22.898Z,4.35
2019-03-16T05:47:22.796Z,4.44
2019-03-16T05:48:22.696Z,4.42
2019-03-16T05:49:22.598Z,4.32
2019-03-16T05:50:22.512Z,4.43
2019-03-16T05:51:22.500Z,4.38
2019-03-16T05:52:22.293Z,4.44
2019-03-16T05:53:22.195Z,4.28
2019-03-16T05:54:22.093Z,4.29
2019-03-16T05:55:22.010Z,4.36
2019-03-16T05:56:21.891Z,4.26
2019-03-16T05:57:21.789Z,4.31
2019-03-16T05:58:21.791Z,4.32
2019-03-16T05:59:21.587Z,4.32
2019-03-16T06:00:21.504Z,4.31
2019-03-16T06:01:21.386Z,4.36
2019-03-16T06:02:21.282Z,4.32
2019-03-16T06:03:21.184Z,4.31
2019-03-16T06:04:21.083Z,4.32
2019-03-16T06:05:21.104Z,4.32
2019-03-16T06:06:20.884Z,4.28
2019-03-16T06:07:20.779Z,4.31
2019-03-16T06:08:20.681Z,4.35
2019-03-16T06:09:20.579Z,4.31
2019-03-16T06:10:20.494Z,4.28
2019-03-16T06:11:20.375Z,4.31
2019-03-16T06:12:20.380Z,4.31
2019-03-16T06:13:20.176Z,4.32
2019-03-16T06:14:20.075Z,4.38
2019-03-16T06:15:19.988Z,4.35
2019-03-16T06:16:19.872Z,4.39
2019-03-16T06:17:19.770Z,4.43
2019-03-16T06:18:19.672Z,4.43
2019-03-16T06:19:19.682Z,4.42
2019-03-16T06:20:19.487Z,4.39
2019-03-16T06:21:19.448Z,4.35
2019-03-16T06:22:19.283Z,4.44
2019-03-16T06:23:19.166Z,4.43
2019-03-16T06:24:19.066Z,4.42
2019-03-16T06:25:18.987Z,4.34
2019-03-16T06:26:18.964Z,4.38
2019-03-16T06:27:18.862Z,4.47
2019-03-16T06:28:18.668Z,4.44
2019-03-16T06:29:18.565Z,4.43
2019-03-16T06:30:20.758Z,4.43
2019-03-16T06:31:18.364Z,4.39
2019-03-16T06:32:18.258Z,4.36
2019-03-16T06:33:18.156Z,4.36
2019-03-16T06:34:18.056Z,4.43
2019-03-16T06:35:24.455Z,4.44
2019-03-16T06:36:17.859Z,4.43
2019-03-16T06:37:17.758Z,4.43
2019-03-16T06:38:17.657Z,4.42
2019-03-16T06:39:17.553Z,4.46
2019-03-16T06:40:17.466Z,4.36
2019-03-16T06:41:17.350Z,4.42
2019-03-16T06:42:17.513Z,4.39
2019-03-16T06:43:17.148Z,4.36
2019-03-16T06:44:17.049Z,4.39
2019-03-16T06:45:16.963Z,4.43
2019-03-16T06:46:16.850Z,4.38
2019-03-16T06:47:16.751Z,4.46
2019-03-16T06:48:16.755Z,4.39
2019-03-16T06:49:16.545Z,4.35
2019-03-16T06:50:16.460Z,4.39
2019-03-16T06:51:16.343Z,4.42
2019-03-16T06:52:16.247Z,4.43
2019-03-16T06:53:19.456Z,4.35
2019-03-16T06:54:16.041Z,4.42
2019-03-16T06:55:16.060Z,4.36
2019-03-16T06:56:15.840Z,4.36
2019-03-16T06:57:15.836Z,4.39
2019-03-16T06:58:15.640Z,4.38
2019-03-16T06:59:15.536Z,4.36
2019-03-16T07:00:15.457Z,4.51
2019-03-16T07:01:15.339Z,4.36
2019-03-16T07:02:15.346Z,4.36
2019-03-16T07:03:15.133Z,4.39
2019-03-16T07:04:15.033Z,4.38
2019-03-16T07:05:14.955Z,4.49
2019-03-16T07:06:14.834Z,4.47
2019-03-16T07:07:14.731Z,4.54
2019-03-16T07:08:14.634Z,4.47
2019-03-16T07:09:14.534Z,4.56
2019-03-16T07:10:14.447Z,4.46
2019-03-16T07:11:14.331Z,4.61
2019-03-16T07:12:14.230Z,4.54
2019-03-16T07:13:14.133Z,4.61
2019-03-16T07:14:14.029Z,4.56
2019-03-16T07:15:13.944Z,4.59
2019-03-16T07:16:13.933Z,4.56
2019-03-16T07:17:13.727Z,4.59
2019-03-16T07:18:13.626Z,4.57
2019-03-16T07:19:13.542Z,4.56
2019-03-16T07:20:13.430Z,4.54
2019-03-16T07:21:13.345Z,4.54
2019-03-16T07:22:13.227Z,4.53
2019-03-16T07:23:13.239Z,4.62
2019-03-16T07:24:13.025Z,4.56
2019-03-16T07:25:12.944Z,4.50
2019-03-16T07:26:15.082Z,4.54
2019-03-16T07:27:25.401Z,4.54
2019-03-16T07:28:12.627Z,4.67
2019-03-16T07:29:12.551Z,4.47
2019-03-16T07:30:12.424Z,4.62
2019-03-16T07:31:12.339Z,4.61
2019-03-16T07:32:12.223Z,4.75
2019-03-16T07:33:12.133Z,4.68
2019-03-16T07:34:12.026Z,4.61
2019-03-16T07:35:11.930Z,4.72
2019-03-16T07:36:11.838Z,4.64
2019-03-16T07:37:11.722Z,4.72
2019-03-16T07:38:11.622Z,4.69
2019-03-16T07:39:11.522Z,4.68
2019-03-16T07:40:11.424Z,4.62
2019-03-16T07:41:11.339Z,4.54
2019-03-16T07:42:11.221Z,4.59
2019-03-16T07:43:11.223Z,4.50
2019-03-16T07:44:11.022Z,4.51
2019-03-16T07:45:10.924Z,4.65
2019-03-16T07:46:10.837Z,4.69
2019-03-16T07:47:10.725Z,4.79
2019-03-16T07:48:10.620Z,4.80
2019-03-16T07:49:10.520Z,4.86
2019-03-16T07:50:10.420Z,4.83
2019-03-16T07:51:10.341Z,4.94
2019-03-16T07:52:10.219Z,4.84
2019-03-16T07:53:10.120Z,4.84
2019-03-16T07:54:10.023Z,4.74
2019-03-16T07:55:09.923Z,4.84
2019-03-16T07:56:09.842Z,4.90
2019-03-16T07:57:09.720Z,4.91
2019-03-16T07:58:09.622Z,4.93
2019-03-16T07:59:09.523Z,4.96
2019-03-16T08:00:09.424Z,4.93
2019-03-16T08:01:09.337Z,4.93
2019-03-16T08:02:09.218Z,4.94
2019-03-16T08:03:09.119Z,5.01
2019-03-16T08:04:09.021Z,4.99
2019-03-16T08:05:17.950Z,4.97
2019-03-16T08:06:08.834Z,4.99
2019-03-16T08:07:08.728Z,4.97
2019-03-16T08:08:08.619Z,4.94
2019-03-16T08:09:08.542Z,4.97
2019-03-16T08:10:08.420Z,5.06
2019-03-16T08:11:08.339Z,5.04
2019-03-16T08:12:08.222Z,5.02
2019-03-16T08:13:08.121Z,5.05
2019-03-16T08:14:08.021Z,5.12
2019-03-16T08:15:07.923Z,5.11
2019-03-16T08:16:07.909Z,4.97
2019-03-16T08:17:07.721Z,5.05
2019-03-16T08:18:08.080Z,5.06
2019-03-16T08:19:07.521Z,5.05
2019-03-16T08:20:07.422Z,5.02
2019-03-16T08:21:07.339Z,5.02
2019-03-16T08:22:07.221Z,5.11
2019-03-16T08:23:07.123Z,5.02
2019-03-16T08:24:07.022Z,5.02
2019-03-16T08:25:06.928Z,4.99
2019-03-16T08:26:06.841Z,4.94
2019-03-16T08:27:07.635Z,4.96
2019-03-16T08:28:06.651Z,5.06
2019-03-16T08:29:06.527Z,4.97
2019-03-16T08:30:06.422Z,5.01
2019-03-16T08:31:06.340Z,4.99
2019-03-16T08:32:06.228Z,5.04
2019-03-16T08:33:06.124Z,5.14
2019-03-16T08:34:06.023Z,4.99
2019-03-16T08:35:05.924Z,5.04
2019-03-16T08:36:05.840Z,5.09
2019-03-16T08:37:05.723Z,5.12
2019-03-16T08:38:05.628Z,5.15
2019-03-16T08:39:05.528Z,5.12
2019-03-16T08:40:05.427Z,5.12
2019-03-16T08:41:05.346Z,5.12
2019-03-16T08:42:05.226Z,5.11
2019-03-16T08:43:05.128Z,5.09
2019-03-16T08:44:05.025Z,5.23
2019-03-16T08:45:04.925Z,5.02
2019-03-16T08:46:04.949Z,5.05
2019-03-16T08:47:04.725Z,5.09
2019-03-16T08:48:04.626Z,5.08
2019-03-16T08:49:04.528Z,5.09
2019-03-16T08:50:04.430Z,5.09
2019-03-16T08:51:04.397Z,5.09
2019-03-16T08:52:04.227Z,5.09
2019-03-16T08:53:04.232Z,5.12
2019-03-16T08:54:04.035Z,5.04
2019-03-16T08:55:03.930Z,5.01
2019-03-16T08:56:03.844Z,5.06
2019-03-16T08:57:03.733Z,5.11
2019-03-16T08:58:06.299Z,5.17
2019-03-16T08:59:03.534Z,5.15
2019-03-16T09:00:03.542Z,5.22
2019-03-16T09:01:03.350Z,5.20
2019-03-16T09:02:03.232Z,5.19
2019-03-16T09:03:03.134Z,5.20
2019-03-16T09:04:03.033Z,5.24
2019-03-16T09:05:02.933Z,5.23
2019-03-16T09:06:02.851Z,5.29
2019-03-16T09:07:02.838Z,5.38
2019-03-16T09:08:02.632Z,5.44
2019-03-16T09:09:02.534Z,5.45
2019-03-16T09:10:02.432Z,5.45
2019-03-16T09:11:02.335Z,5.55
2019-03-16T09:12:02.252Z,5.58
2019-03-16T09:13:02.144Z,5.51
2019-03-16T09:14:02.157Z,5.41
2019-03-16T09:15:01.936Z,5.42
2019-03-16T09:16:01.839Z,5.40
2019-03-16T09:17:01.754Z,5.42
2019-03-16T09:18:01.642Z,5.49
2019-03-16T09:19:01.538Z,5.49
2019-03-16T09:20:01.440Z,5.40
2019-03-16T09:21:01.523Z,5.49
2019-03-16T09:22:01.257Z,5.49
2019-03-16T09:23:01.140Z,5.45
2019-03-16T09:24:01.044Z,5.40
2019-03-16T09:25:00.942Z,5.33
2019-03-16T09:26:00.845Z,5.38
2019-03-16T09:27:00.758Z,5.35
2019-03-16T09:28:00.747Z,5.38
2019-03-16T09:29:00.569Z,5.38
2019-03-16T09:30:00.447Z,5.45
2019-03-16T09:31:00.345Z,5.38
2019-03-16T09:32:00.261Z,5.38
2019-03-16T09:33:00.152Z,5.40
2019-03-16T09:34:00.051Z,5.41
2019-03-16T09:35:00.053Z,5.45
2019-03-16T09:35:59.849Z,5.47
2019-03-16T09:36:59.769Z,5.56
2019-03-16T09:37:59.651Z,5.56
2019-03-16T09:38:59.551Z,5.73
2019-03-16T09:39:59.456Z,5.69
2019-03-16T09:40:59.354Z,5.63
2019-03-16T09:41:59.395Z,5.58
2019-03-16T09:42:59.214Z,5.74
2019-03-16T09:44:01.870Z,5.73
2019-03-16T09:44:58.953Z,5.59
2019-03-16T09:45:58.857Z,5.56
2019-03-16T09:46:58.777Z,5.60
2019-03-16T09:47:58.656Z,5.59
2019-03-16T09:48:58.675Z,5.75
2019-03-16T09:49:58.457Z,5.69
2019-03-16T09:50:58.359Z,5.58
2019-03-16T09:51:58.295Z,5.56
2019-03-16T09:52:58.165Z,5.63
2019-03-16T09:53:58.059Z,5.80
2019-03-16T09:54:57.970Z,5.58
2019-03-16T09:55:57.865Z,5.58
2019-03-16T09:57:01.449Z,5.58
2019-03-16T09:57:57.738Z,5.60
2019-03-16T09:58:57.565Z,5.70
2019-03-16T09:59:57.470Z,5.58
2019-03-16T10:00:57.380Z,5.62
2019-03-16T10:01:57.285Z,5.67
2019-03-16T10:02:57.171Z,5.65
2019-03-16T10:03:57.072Z,5.66
2019-03-16T10:04:56.970Z,5.73
2019-03-16T10:05:56.870Z,5.74
2019-03-16T10:06:56.794Z,5.58
2019-03-16T10:07:56.674Z,5.67
2019-03-16T10:08:56.575Z,5.62
2019-03-16T10:09:56.475Z,5.75
2019-03-16T10:10:56.374Z,5.77
2019-03-16T10:11:56.295Z,5.77
2019-03-16T10:12:56.176Z,5.92
2019-03-16T10:13:56.076Z,5.87
2019-03-16T10:14:55.977Z,5.81
2019-03-16T10:15:55.878Z,5.88
2019-03-16T10:16:55.795Z,5.78
2019-03-16T10:17:55.679Z,5.88
2019-03-16T10:18:55.580Z,5.83
2019-03-16T10:19:55.480Z,5.95
2019-03-16T10:20:55.385Z,5.93
2019-03-16T10:21:55.303Z,5.98
2019-03-16T10:22:55.183Z,5.98
2019-03-16T10:23:55.083Z,5.99
2019-03-16T10:24:54.984Z,6.01
2019-03-16T10:25:54.885Z,6.05
2019-03-16T10:26:54.802Z,6.01
2019-03-16T10:27:54.688Z,6.05
2019-03-16T10:28:54.594Z,6.13
2019-03-16T10:29:54.492Z,6.11
2019-03-16T10:30:54.391Z,6.24
2019-03-16T10:31:54.317Z,6.27
2019-03-16T10:32:54.191Z,6.20
2019-03-16T10:33:54.092Z,6.20
2019-03-16T10:34:54.003Z,6.14
2019-03-16T10:35:53.899Z,6.24
2019-03-16T10:36:53.811Z,6.25
2019-03-16T10:37:53.693Z,6.30
2019-03-16T10:38:53.597Z,6.25
2019-03-16T10:39:53.496Z,6.36
2019-03-16T10:40:53.398Z,6.32
2019-03-16T10:41:53.314Z,6.39
2019-03-16T10:42:53.197Z,6.38
2019-03-16T10:43:53.102Z,6.51
2019-03-16T10:44:53.002Z,6.53
2019-03-16T10:45:52.902Z,6.55
2019-03-16T10:46:52.807Z,6.60
2019-03-16T10:47:52.722Z,6.58
2019-03-16T10:48:52.605Z,6.63
2019-03-16T10:49:52.504Z,6.71
2019-03-16T10:50:52.410Z,6.81
2019-03-16T10:51:52.325Z,6.94
2019-03-16T10:52:52.214Z,6.99
2019-03-16T10:53:52.113Z,6.89
2019-03-16T10:54:52.015Z,6.97
2019-03-16T10:55:51.917Z,7.04
2019-03-16T10:56:51.817Z,7.08
2019-03-16T10:57:51.732Z,7.08
2019-03-16T10:58:56.585Z,7.16
2019-03-16T10:59:51.520Z,7.30
2019-03-16T11:00:51.418Z,7.16
2019-03-16T11:01:51.322Z,7.18
2019-03-16T11:02:51.241Z,7.23
2019-03-16T11:03:51.128Z,7.30
2019-03-16T11:04:51.026Z,7.32
2019-03-16T11:05:50.927Z,7.50
2019-03-16T11:06:50.830Z,7.37
2019-03-16T11:07:50.748Z,7.47
2019-03-16T11:08:50.631Z,7.51
2019-03-16T11:09:50.535Z,7.47
2019-03-16T11:10:50.437Z,7.51
2019-03-16T11:11:50.443Z,7.42
2019-03-16T11:12:50.258Z,7.55
2019-03-16T11:13:50.139Z,7.63
2019-03-16T11:14:50.044Z,7.58
2019-03-16T11:15:49.946Z,7.62
2019-03-16T11:16:49.869Z,7.67
2019-03-16T11:17:49.763Z,7.57
2019-03-16T11:18:49.649Z,7.63
2019-03-16T11:19:49.556Z,7.55
2019-03-16T11:20:49.459Z,7.50
2019-03-16T11:21:50.716Z,7.54
2019-03-16T11:22:49.277Z,7.62
2019-03-16T11:23:49.158Z,7.55
2019-03-16T11:24:49.066Z,7.55
2019-03-16T11:25:48.964Z,7.54
2019-03-16T11:26:48.866Z,7.55
2019-03-16T11:27:48.783Z,7.63
2019-03-16T11:28:48.669Z,7.62
2019-03-16T11:29:48.571Z,7.57
2019-03-16T11:30:48.474Z,7.63
2019-03-16T11:31:48.378Z,7.70
2019-03-16T11:32:48.399Z,7.73
2019-03-16T11:33:48.512Z,7.73
2019-03-16T11:34:48.083Z,7.67
2019-03-16T11:35:47.985Z,7.70
2019-03-16T11:36:47.887Z,7.69
2019-03-16T11:37:47.833Z,7.76
2019-03-16T11:38:47.719Z,7.79
2019-03-16T11:39:47.697Z,7.76
2019-03-16T11:40:47.496Z,7.82
2019-03-16T11:41:47.393Z,7.85
2019-03-16T11:42:47.319Z,7.91
2019-03-16T11:43:47.198Z,7.99
2019-03-16T11:44:47.099Z,7.96
2019-03-16T11:45:47.005Z,7.96
2019-03-16T11:46:46.907Z,8.04
2019-03-16T11:47:46.821Z,8.06
2019-03-16T11:48:46.708Z,7.99
2019-03-16T11:49:46.608Z,8.02
2019-03-16T11:50:48.787Z,7.96
2019-03-16T11:51:46.412Z,8.03
2019-03-16T11:52:46.335Z,8.04
2019-03-16T11:53:46.216Z,8.10
2019-03-16T11:54:46.119Z,8.10
2019-03-16T11:55:46.026Z,8.06
2019-03-16T11:56:45.946Z,8.10
2019-03-16T11:57:45.842Z,8.09
2019-03-16T11:58:45.733Z,8.12
2019-03-16T11:59:45.633Z,8.14
2019-03-16T12:00:45.532Z,8.20
2019-03-16T12:01:45.432Z,8.28
2019-03-16T12:02:45.350Z,8.20
2019-03-16T12:03:45.243Z,8.22
2019-03-16T12:04:45.141Z,8.20
2019-03-16T12:05:45.041Z,8.20
2019-03-16T12:06:44.945Z,8.18
2019-03-16T12:07:44.868Z,8.32
2019-03-16T12:08:45.065Z,8.28
2019-03-16T12:09:44.648Z,8.29
2019-03-16T12:10:44.552Z,8.37
2019-03-16T12:11:44.452Z,8.32
2019-03-16T12:12:44.378Z,8.28
2019-03-16T12:13:44.271Z,8.34
2019-03-16T12:14:44.157Z,8.37
2019-03-16T12:15:44.181Z,8.36
2019-03-16T12:16:43.959Z,8.42
2019-03-16T12:17:43.880Z,8.34
2019-03-16T12:18:43.770Z,8.34
2019-03-16T12:19:43.665Z,8.39
2019-03-16T12:20:43.570Z,8.45
2019-03-16T12:21:43.472Z,8.37
2019-03-16T12:22:43.498Z,8.43
2019-03-16T12:23:43.276Z,8.46
2019-03-16T12:24:43.177Z,8.49
2019-03-16T12:25:43.081Z,8.43
2019-03-16T12:26:42.979Z,8.40
2019-03-16T12:27:42.900Z,8.49
2019-03-16T12:28:42.787Z,8.47
2019-03-16T12:29:42.791Z,8.52
2019-03-16T12:30:42.588Z,8.57
2019-03-16T12:31:42.491Z,8.47
2019-03-16T12:32:42.409Z,8.46
2019-03-16T12:33:42.295Z,8.47
2019-03-16T12:34:42.198Z,8.58
2019-03-16T12:35:42.105Z,8.58
2019-03-16T12:36:42.107Z,8.49
2019-03-16T12:37:41.918Z,8.54
2019-03-16T12:38:41.807Z,8.55
2019-03-16T12:39:41.709Z,8.58
2019-03-16T12:40:41.608Z,8.58
2019-03-16T12:41:41.513Z,8.65
2019-03-16T12:42:41.416Z,8.65
2019-03-16T12:43:41.439Z,8.68
2019-03-16T12:44:41.219Z,8.70
2019-03-16T12:45:41.117Z,8.71
2019-03-16T12:46:41.020Z,8.88
2019-03-16T12:47:40.927Z,8.88
2019-03-16T12:48:40.843Z,8.79
2019-03-16T12:49:40.728Z,8.78
2019-03-16T12:50:40.738Z,8.85
2019-03-16T12:51:40.535Z,8.96
2019-03-16T12:52:40.438Z,8.83
2019-03-16T12:53:40.356Z,8.88
2019-03-16T12:54:40.245Z,8.85
2019-03-16T12:55:40.139Z,8.94
2019-03-16T12:56:40.045Z,8.83
2019-03-16T12:57:39.957Z,8.80
2019-03-16T12:58:39.865Z,8.86
2019-03-16T12:59:46.742Z,8.85
2019-03-16T13:00:39.651Z,8.89
2019-03-16T13:01:39.557Z,8.88
2019-03-16T13:02:39.455Z,8.88
2019-03-16T13:03:39.400Z,8.86
2019-03-16T13:04:39.259Z,8.82
2019-03-16T13:05:39.162Z,8.79
2019-03-16T13:06:39.066Z,8.75
2019-03-16T13:07:38.964Z,8.73
2019-03-16T13:08:38.887Z,8.73
2019-03-16T13:09:38.773Z,8.76
2019-03-16T13:10:38.676Z,8.76
2019-03-16T13:11:38.580Z,8.63
2019-03-16T13:12:39.212Z,8.64
2019-03-16T13:13:38.400Z,8.67
2019-03-16T13:14:38.287Z,8.63
2019-03-16T13:15:38.192Z,8.70
2019-03-16T13:16:38.089Z,8.67
2019-03-16T13:17:37.997Z,8.68